Time;durP1;ratioP1;P1;durP2;ratioP2;P2;SDS_P1;SDS_P2;PMS_P1;PMS_P2;Temp;Humidity;BMP_temperature;BMP_pressure;BME280_temperature;BME280_humidity;BME280_pressure;Samples;Min_cycle;Max_cycle;Signal;HPM_P1;HPM_P2
2024/01/11 00:00:46;;;;;;;38.72;13.30;;;-5.70;99.90;;;;;;5066695;28;20067;-76
2024/01/11 00:03:12;;;;;;;38.17;14.80;;;-5.70;99.90;;;;;;5061098;28;20248;-76
2024/01/11 00:05:38;;;;;;;35.38;13.30;;;-5.70;99.90;;;;;;5060310;28;20091;-76
2024/01/11 00:08:04;;;;;;;40.60;13.07;;;-5.60;99.90;;;;;;5061672;28;20046;-76
2024/01/11 00:10:30;;;;;;;48.63;15.55;;;-5.70;99.90;;;;;;5068743;28;20674;-76
2024/01/11 00:12:55;;;;;;;38.28;14.38;;;-5.70;99.90;;;;;;5066186;28;20782;-75
2024/01/11 00:15:21;;;;;;;43.05;14.40;;;-5.70;99.90;;;;;;5068721;28;20037;-76
2024/01/11 00:17:47;;;;;;;42.75;15.07;;;-5.70;99.90;;;;;;5067418;28;20024;-76
2024/01/11 00:20:12;;;;;;;44.85;14.50;;;-5.70;99.90;;;;;;5062030;28;20048;-76
2024/01/11 00:22:38;;;;;;;44.83;13.82;;;-5.70;99.90;;;;;;5067220;28;20023;-76
2024/01/11 00:25:04;;;;;;;38.05;13.25;;;-5.60;99.90;;;;;;5061310;28;20029;-76
2024/01/11 00:27:30;;;;;;;32.08;11.82;;;-5.70;99.90;;;;;;5065974;28;20028;-76
2024/01/11 00:29:55;;;;;;;33.78;12.40;;;-5.70;99.90;;;;;;5059749;28;20204;-76
2024/01/11 00:32:21;;;;;;;37.90;14.20;;;-5.70;99.90;;;;;;5063886;28;20099;-75
2024/01/11 00:34:47;;;;;;;33.97;11.77;;;-5.70;99.90;;;;;;5066257;28;20437;-76
2024/01/11 00:37:12;;;;;;;41.30;14.00;;;-5.70;99.90;;;;;;5062923;28;20111;-76
2024/01/11 00:39:38;;;;;;;32.70;13.48;;;-5.70;99.90;;;;;;5062080;28;20449;-76
2024/01/11 00:42:04;;;;;;;38.13;12.52;;;-5.80;99.90;;;;;;5063481;28;20035;-76
2024/01/11 00:44:29;;;;;;;39.75;13.57;;;-5.80;99.90;;;;;;5062269;28;20029;-76
2024/01/11 00:46:55;;;;;;;36.92;13.25;;;-5.80;99.90;;;;;;5076476;23;20035;-74
2024/01/11 00:49:23;;;;;;;37.45;13.45;;;-5.70;99.90;;;;;;5082045;28;20024;-74
2024/01/11 00:51:51;;;;;;;35.42;13.32;;;-5.80;99.90;;;;;;5078059;28;20044;-74
2024/01/11 00:54:19;;;;;;;41.63;14.10;;;-5.80;99.90;;;;;;5082876;28;20182;-74
2024/01/11 00:56:47;;;;;;;37.13;14.18;;;-5.80;99.90;;;;;;5080069;28;20078;-74
2024/01/11 00:59:13;;;;;;;35.53;12.77;;;-5.80;99.90;;;;;;5082658;28;20027;-74
2024/01/11 01:01:39;;;;;;;35.28;12.05;;;-5.80;99.90;;;;;;5082807;28;20494;-74
2024/01/11 01:04:04;;;;;;;42.92;13.88;;;-5.80;99.90;;;;;;5078490;28;20492;-74
2024/01/11 01:06:30;;;;;;;39.92;13.27;;;-5.70;99.90;;;;;;5079393;28;20024;-74
2024/01/11 01:08:55;;;;;;;38.58;13.00;;;-5.70;99.90;;;;;;5077497;28;20012;-74
2024/01/11 01:11:21;;;;;;;29.15;11.52;;;-5.80;99.90;;;;;;5080569;28;20020;-74
2024/01/11 01:13:49;;;;;;;36.80;13.52;;;-5.80;99.90;;;;;;5080782;28;20062;-74
2024/01/11 01:16:17;;;;;;;35.08;12.40;;;-5.80;99.90;;;;;;5078203;28;20784;-74
2024/01/11 01:18:45;;;;;;;35.30;12.23;;;-5.70;99.90;;;;;;5080572;28;20418;-74
2024/01/11 01:21:10;;;;;;;;;;;-5.70;99.90;;;;;;5080682;28;20107;-74
2024/01/11 01:23:36;;;;;;;31.13;12.13;;;-5.80;99.90;;;;;;5083990;28;20019;-73
2024/01/11 01:26:04;;;;;;;30.92;12.15;;;-5.70;99.90;;;;;;5086312;28;20031;-74
2024/01/11 01:28:30;;;;;;;35.55;13.73;;;-5.80;99.90;;;;;;5083528;28;20608;-74
2024/01/11 01:30:55;;;;;;;33.65;11.52;;;-5.80;99.90;;;;;;5083250;28;20035;-74
2024/01/11 01:33:21;;;;;;;32.72;12.55;;;-5.80;99.90;;;;;;5080840;28;20035;-72
2024/01/11 01:35:46;;;;;;;29.40;11.73;;;-5.70;99.90;;;;;;5084359;28;20458;-72
2024/01/11 01:38:12;;;;;;;38.03;12.85;;;-5.70;99.90;;;;;;5081993;28;20024;-72
2024/01/11 01:40:40;;;;;;;35.42;11.52;;;-5.70;99.90;;;;;;5082255;28;20020;-72
2024/01/11 01:43:09;;;;;;;28.73;11.55;;;-5.70;99.90;;;;;;5075024;28;20036;-72
2024/01/11 01:45:35;;;;;;;35.05;11.55;;;-5.80;99.90;;;;;;5084645;28;20035;-72
2024/01/11 01:48:04;;;;;;;39.60;13.30;;;-5.80;99.90;;;;;;5080775;28;20032;-72
2024/01/11 01:50:30;;;;;;;40.50;13.45;;;-5.80;99.90;;;;;;5077561;28;20021;-71
2024/01/11 01:52:56;;;;;;;30.70;11.93;;;-5.80;99.90;;;;;;5083104;28;20047;-72
2024/01/11 01:55:23;;;;;;;35.63;12.02;;;-5.80;99.90;;;;;;5081103;28;20456;-72
2024/01/11 01:57:50;;;;;;;29.58;11.68;;;-5.80;99.90;;;;;;5087037;28;20116;-72
2024/01/11 02:00:16;;;;;;;36.42;13.40;;;-5.90;99.90;;;;;;5087453;28;20043;-72
2024/01/11 02:02:47;;;;;;;31.33;11.38;;;-5.90;99.90;;;;;;5082175;28;20024;-72
2024/01/11 02:05:15;;;;;;;28.80;10.48;;;-5.90;99.90;;;;;;5088621;28;20031;-73
2024/01/11 02:07:41;;;;;;;30.38;11.07;;;-5.80;99.90;;;;;;5089196;28;20394;-72
2024/01/11 02:10:09;;;;;;;33.70;12.50;;;-5.80;99.90;;;;;;5078606;28;20028;-73
2024/01/11 02:12:37;;;;;;;35.42;12.35;;;-5.80;99.90;;;;;;5078840;28;20152;-73
2024/01/11 02:15:03;;;;;;;30.13;11.48;;;-5.80;99.90;;;;;;5079770;28;20024;-73
2024/01/11 02:17:30;;;;;;;30.13;11.45;;;-6.00;99.90;;;;;;5085273;28;20732;-73
2024/01/11 02:19:55;;;;;;;37.17;12.38;;;-6.00;99.90;;;;;;5086830;28;20075;-72
2024/01/11 02:22:24;;;;;;;30.48;11.07;;;-5.90;99.90;;;;;;5087261;28;20530;-73
2024/01/11 02:24:50;;;;;;;32.92;11.23;;;-6.00;99.90;;;;;;5087889;28;20028;-72
2024/01/11 02:27:20;;;;;;;35.63;11.85;;;-6.00;99.90;;;;;;5087027;28;20650;-73
2024/01/11 02:29:46;;;;;;;33.22;11.88;;;-6.00;99.90;;;;;;5082725;28;20024;-73
2024/01/11 02:32:12;;;;;;;33.67;12.27;;;-6.00;99.90;;;;;;5081711;28;20107;-73
2024/01/11 02:34:37;;;;;;;32.50;12.38;;;-6.00;99.90;;;;;;5082997;28;20119;-73
2024/01/11 02:37:06;;;;;;;32.33;11.25;;;-6.00;99.90;;;;;;5082383;28;20131;-72
2024/01/11 02:39:31;;;;;;;34.50;11.07;;;-6.00;99.90;;;;;;5084695;28;20032;-73
2024/01/11 02:41:58;;;;;;;32.95;10.98;;;-5.90;99.90;;;;;;5085614;28;20414;-73
2024/01/11 02:44:24;;;;;;;30.63;11.65;;;-5.90;99.90;;;;;;5081552;28;20035;-73
2024/01/11 02:46:49;;;;;;;39.53;13.70;;;-5.90;99.90;;;;;;5079454;28;20089;-73
2024/01/11 02:49:15;;;;;;;33.22;10.90;;;-6.00;99.90;;;;;;5084688;28;20444;-73
2024/01/11 02:51:43;;;;;;;29.33;10.45;;;-6.00;99.90;;;;;;5085582;28;20107;-74
2024/01/11 02:54:12;;;;;;;30.45;11.85;;;-6.00;99.90;;;;;;5078353;28;20035;-74
2024/01/11 02:56:37;;;;;;;39.15;13.15;;;-5.90;99.90;;;;;;5089095;28;20040;-73
2024/01/11 02:59:03;;;;;;;24.30;10.68;;;-5.90;99.90;;;;;;5082017;28;20032;-72
2024/01/11 03:01:32;;;;;;;32.63;12.45;;;-6.00;99.90;;;;;;5085075;28;20040;-73
2024/01/11 03:03:58;;;;;;;34.03;12.45;;;-6.00;99.90;;;;;;5082454;28;20034;-73
2024/01/11 03:06:23;;;;;;;31.23;10.95;;;-6.00;99.90;;;;;;5080010;28;20212;-73
2024/01/11 03:08:51;;;;;;;27.77;10.50;;;-6.10;99.90;;;;;;5088077;28;20034;-73
2024/01/11 03:11:17;;;;;;;31.67;11.98;;;-6.10;99.90;;;;;;5079919;28;20086;-73
2024/01/11 03:13:43;;;;;;;36.90;12.73;;;-6.10;99.90;;;;;;5083445;28;20025;-73
2024/01/11 03:16:08;;;;;;;35.10;11.55;;;-6.10;99.90;;;;;;5083468;28;20032;-73
2024/01/11 03:18:36;;;;;;;32.13;10.35;;;-6.10;99.90;;;;;;5079542;28;20486;-73
2024/01/11 03:21:05;;;;;;;29.08;11.25;;;-6.00;99.90;;;;;;5087176;28;20080;-73
2024/01/11 03:23:30;;;;;;;31.33;10.65;;;-6.00;99.90;;;;;;5080981;28;20039;-73
2024/01/11 03:25:56;;;;;;;34.65;11.68;;;-6.10;99.90;;;;;;5082059;28;20414;-73
2024/01/11 03:28:21;;;;;;;33.00;10.48;;;-6.10;99.90;;;;;;5085070;28;20028;-73
2024/01/11 03:30:47;;;;;;;29.30;11.45;;;-6.10;99.90;;;;;;5081638;28;20030;-73
2024/01/11 03:33:12;;;;;;;31.50;11.23;;;-6.00;99.90;;;;;;5087319;28;20054;-73
2024/01/11 03:35:43;;;;;;;38.60;13.23;;;-6.00;99.90;;;;;;5084436;28;20574;-73
2024/01/11 03:38:09;;;;;;;29.73;10.57;;;-6.00;99.90;;;;;;5084890;28;20474;-73
2024/01/11 03:40:37;;;;;;;32.53;11.70;;;-6.10;99.90;;;;;;5083637;28;20039;-73
2024/01/11 03:43:05;;;;;;;33.55;11.70;;;-6.10;99.90;;;;;;5076951;28;20035;-73
2024/01/11 03:45:30;;;;;;;33.42;11.07;;;-6.00;99.90;;;;;;5078255;28;20031;-73
2024/01/11 03:47:56;;;;;;;35.58;11.85;;;-6.10;99.90;;;;;;5082904;28;20032;-73
2024/01/11 03:50:21;;;;;;;36.63;11.38;;;-6.10;99.90;;;;;;5083747;28;20028;-74
2024/01/11 03:52:47;;;;;;;31.38;11.50;;;-6.10;99.90;;;;;;5081704;28;20080;-73
2024/01/11 03:55:13;;;;;;;33.08;11.57;;;-6.10;99.90;;;;;;5075660;28;20039;-73
2024/01/11 03:57:42;;;;;;;38.78;11.30;;;-6.10;99.90;;;;;;5085494;28;20111;-74
2024/01/11 04:00:09;;;;;;;36.83;11.77;;;-6.10;99.90;;;;;;5080170;28;20111;-73
2024/01/11 04:02:34;;;;;;;30.15;10.82;;;-6.10;99.90;;;;;;5080637;28;20085;-75
2024/01/11 04:05:01;;;;;;;27.38;10.43;;;-6.10;99.90;;;;;;5084180;28;20095;-73
2024/01/11 04:07:26;;;;;;;34.95;11.85;;;-6.10;99.90;;;;;;5084620;28;20020;-73
2024/01/11 04:09:54;;;;;;;30.13;10.40;;;-6.10;99.90;;;;;;5079580;28;20032;-73
2024/01/11 04:12:20;;;;;;;34.88;10.93;;;-6.00;99.90;;;;;;5080392;28;20025;-73
2024/01/11 04:14:47;;;;;;;31.33;11.27;;;-6.10;99.90;;;;;;5079686;28;20099;-73
2024/01/11 04:17:13;;;;;;;;;;;-6.00;99.90;;;;;;5081610;28;20450;-73
2024/01/11 04:19:39;;;;;;;27.50;9.60;;;-6.00;99.90;;;;;;5080382;28;19995;-73
2024/01/11 04:22:05;;;;;;;29.88;10.23;;;-6.00;99.90;;;;;;5079191;28;20020;-73
2024/01/11 04:24:30;;;;;;;35.35;11.57;;;-6.10;99.90;;;;;;5082559;28;20471;-73
2024/01/11 04:26:56;;;;;;;31.80;11.15;;;-6.10;99.90;;;;;;5080919;28;20081;-73
2024/01/11 04:29:21;;;;;;;32.35;10.60;;;-6.10;99.90;;;;;;5075580;28;20024;-73
2024/01/11 04:31:47;;;;;;;33.95;11.93;;;-6.10;99.90;;;;;;5085447;28;20554;-73
2024/01/11 04:34:12;;;;;;;39.10;11.38;;;-6.10;99.90;;;;;;5086006;28;20036;-73
2024/01/11 04:36:39;;;;;;;29.58;10.75;;;-6.10;99.90;;;;;;5084060;28;20024;-73
2024/01/11 04:39:07;;;;;;;28.38;9.98;;;-6.10;99.90;;;;;;5085058;28;20079;-73
2024/01/11 04:41:36;;;;;;;28.63;11.00;;;-6.00;99.90;;;;;;5079019;28;20110;-73
2024/01/11 04:44:02;;;;;;;35.05;11.98;;;-6.10;99.90;;;;;;5076647;28;20034;-73
2024/01/11 04:46:27;;;;;;;28.23;10.75;;;-6.10;99.90;;;;;;5082007;28;20031;-73
2024/01/11 04:48:53;;;;;;;31.80;11.18;;;-6.10;99.90;;;;;;5075229;28;20020;-73
2024/01/11 04:51:22;;;;;;;35.90;10.73;;;-6.10;99.90;;;;;;5081020;28;20499;-73
2024/01/11 04:53:47;;;;;;;24.15;10.65;;;-6.20;99.90;;;;;;5085988;28;20036;-73
2024/01/11 04:56:15;;;;;;;32.78;11.10;;;-6.10;99.90;;;;;;5080496;28;21519;-73
2024/01/11 04:58:44;;;;;;;30.33;10.48;;;-6.10;99.90;;;;;;5082507;28;20036;-74
2024/01/11 05:01:14;;;;;;;29.20;10.73;;;-6.20;99.90;;;;;;5078068;28;20109;-73
2024/01/11 05:03:40;;;;;;;36.78;11.32;;;-6.10;99.90;;;;;;5082966;28;20236;-73
2024/01/11 05:06:06;;;;;;;25.45;8.88;;;-6.20;99.90;;;;;;5084329;28;20032;-73
2024/01/11 05:08:31;;;;;;;30.83;9.90;;;-6.20;99.90;;;;;;5080304;28;20533;-73
2024/01/11 05:10:59;;;;;;;25.42;9.88;;;-6.20;99.90;;;;;;5080027;28;20031;-73
2024/01/11 05:13:25;;;;;;;27.83;9.57;;;-6.20;99.90;;;;;;5075548;28;20032;-73
2024/01/11 05:15:51;;;;;;;34.08;10.82;;;-6.20;99.90;;;;;;5076036;28;20103;-73
2024/01/11 05:18:19;;;;;;;31.60;10.77;;;-6.20;99.90;;;;;;5080218;28;20032;-73
2024/01/11 05:20:44;;;;;;;28.67;10.20;;;-6.20;99.90;;;;;;5075634;28;20044;-73
2024/01/11 05:23:11;;;;;;;32.72;11.27;;;-6.10;99.90;;;;;;5074609;28;20067;-73
2024/01/11 05:25:37;;;;;;;32.40;11.45;;;-6.10;99.90;;;;;;5084820;28;20517;-73
2024/01/11 05:28:03;;;;;;;32.67;11.40;;;-6.10;99.90;;;;;;5079349;28;20060;-73
2024/01/11 05:30:29;;;;;;;27.73;10.13;;;-6.10;99.90;;;;;;5081977;28;20067;-73
2024/01/11 05:32:58;;;;;;;36.10;11.57;;;-6.00;99.90;;;;;;5078372;28;20028;-73
2024/01/11 05:35:24;;;;;;;34.58;12.07;;;-6.10;99.90;;;;;;5080214;28;20028;-73
2024/01/11 05:37:50;;;;;;;28.42;10.98;;;-6.00;99.90;;;;;;5075984;28;20043;-73
2024/01/11 05:40:18;;;;;;;33.00;11.35;;;-6.00;99.90;;;;;;5083084;28;20616;-73
2024/01/11 05:42:43;;;;;;;30.02;11.32;;;-6.00;99.90;;;;;;5081209;28;20052;-73
2024/01/11 05:45:09;;;;;;;29.00;10.60;;;-6.00;99.90;;;;;;5084480;28;20082;-74
2024/01/11 05:47:35;;;;;;;32.40;10.70;;;-6.00;99.90;;;;;;5084525;28;20074;-73
2024/01/11 05:50:00;;;;;;;37.15;11.13;;;-5.90;99.90;;;;;;5085222;28;20577;-73
2024/01/11 05:52:33;;;;;;;37.05;11.32;;;-5.90;99.90;;;;;;5077256;28;20153;-73
2024/01/11 05:55:01;;;;;;;32.08;12.00;;;-5.90;99.90;;;;;;5082729;28;20074;-73
2024/01/11 05:57:26;;;;;;;38.17;11.50;;;-6.00;99.90;;;;;;5074143;28;20032;-73
2024/01/11 05:59:52;;;;;;;40.92;12.07;;;-6.00;99.90;;;;;;5076557;28;20031;-73
2024/01/11 06:02:17;;;;;;;36.50;11.43;;;-5.90;99.90;;;;;;5079167;28;20032;-73
2024/01/11 06:04:43;;;;;;;30.23;11.05;;;-5.90;99.90;;;;;;5074490;28;20934;-73
2024/01/11 06:07:12;;;;;;;35.42;11.43;;;-5.90;99.90;;;;;;5068211;28;20099;-73
2024/01/11 06:09:39;;;;;;;30.33;10.52;;;-5.90;99.90;;;;;;5076627;28;20611;-73
2024/01/11 06:12:05;;;;;;;39.75;11.70;;;-5.90;99.90;;;;;;5080169;28;20039;-73
2024/01/11 06:14:33;;;;;;;25.75;11.07;;;-5.90;99.90;;;;;;5079599;28;20028;-73
2024/01/11 06:16:58;;;;;;;35.50;11.70;;;-5.80;99.90;;;;;;5079304;28;20577;-73
2024/01/11 06:19:27;;;;;;;34.42;11.80;;;-5.80;99.90;;;;;;5074414;28;20154;-73
2024/01/11 06:21:52;;;;;;;32.47;11.15;;;-5.80;99.90;;;;;;5077212;28;20154;-73
2024/01/11 06:24:20;;;;;;;30.45;11.90;;;-5.80;99.90;;;;;;5082440;28;20028;-73
2024/01/11 06:26:46;;;;;;;33.70;11.40;;;-5.70;99.90;;;;;;5081879;28;20047;-73
2024/01/11 06:29:14;;;;;;;36.80;12.00;;;-5.80;99.90;;;;;;5077768;28;20504;-74
2024/01/11 06:31:39;;;;;;;30.75;11.38;;;-5.70;99.90;;;;;;5083144;28;20020;-73
2024/01/11 06:34:05;;;;;;;28.60;10.70;;;-5.70;99.90;;;;;;5078946;28;20035;-73
2024/01/11 06:36:30;;;;;;;36.95;11.73;;;-5.70;99.90;;;;;;5082296;28;20032;-73
2024/01/11 06:38:56;;;;;;;28.25;10.65;;;-5.70;99.90;;;;;;5075297;28;20103;-74
2024/01/11 06:41:21;;;;;;;30.60;10.90;;;-5.70;99.90;;;;;;5079853;28;20032;-73
2024/01/11 06:43:47;;;;;;;35.17;11.48;;;-5.80;99.90;;;;;;5081846;28;20048;-73
2024/01/11 06:46:12;;;;;;;33.38;11.60;;;-5.70;99.90;;;;;;5083626;23;20267;-73
2024/01/11 06:48:38;;;;;;;34.50;11.68;;;-5.70;99.90;;;;;;5073781;28;20464;-72
2024/01/11 06:51:04;;;;;;;34.65;11.23;;;-5.70;99.90;;;;;;5078074;28;20025;-75
2024/01/11 06:53:29;;;;;;;34.53;11.27;;;-5.70;99.90;;;;;;5079687;28;20303;-75
2024/01/11 06:55:55;;;;;;;33.25;12.25;;;-5.70;99.90;;;;;;5079091;28;20577;-75
2024/01/11 06:58:23;;;;;;;34.67;12.85;;;-5.60;99.90;;;;;;5074940;28;20383;-75
2024/01/11 07:00:50;;;;;;;38.45;13.40;;;-5.60;99.90;;;;;;5078362;28;21134;-75
2024/01/11 07:03:16;;;;;;;32.33;12.00;;;-5.60;99.90;;;;;;5075181;28;20130;-75
2024/01/11 07:05:42;;;;;;;42.88;13.77;;;-5.70;99.90;;;;;;5080002;28;20020;-75
2024/01/11 07:08:08;;;;;;;36.55;12.77;;;-5.60;99.90;;;;;;5073747;28;20100;-75
2024/01/11 07:10:33;;;;;;;38.28;14.40;;;-5.60;99.90;;;;;;5081155;28;20019;-75
2024/01/11 07:12:59;;;;;;;36.33;12.85;;;-5.60;99.90;;;;;;5080656;28;20259;-75
2024/01/11 07:15:25;;;;;;;38.92;13.77;;;-5.60;99.90;;;;;;5073763;28;20073;-75
2024/01/11 07:17:53;;;;;;;36.88;12.50;;;-5.70;99.90;;;;;;5080362;28;20673;-75
2024/01/11 07:20:21;;;;;;;40.25;13.48;;;-5.70;99.90;;;;;;5086737;28;20020;-75
2024/01/11 07:22:49;;;;;;;38.22;13.63;;;-5.60;99.90;;;;;;5085213;28;20758;-74
2024/01/11 07:25:15;;;;;;;39.40;13.40;;;-5.60;99.90;;;;;;5086761;28;20020;-75
2024/01/11 07:27:40;;;;;;;33.58;12.25;;;-5.60;99.90;;;;;;5086169;28;20051;-75
2024/01/11 07:30:08;;;;;;;37.85;14.10;;;-5.60;99.90;;;;;;5084942;28;20024;-75
2024/01/11 07:32:33;;;;;;;;;;;-5.60;99.90;;;;;;5087563;28;20017;-75
2024/01/11 07:34:59;;;;;;;36.10;12.35;;;-5.50;99.90;;;;;;5075316;28;19930;-75
2024/01/11 07:37:26;;;;;;;40.17;13.20;;;-5.50;99.90;;;;;;5076869;28;20024;-75
2024/01/11 07:39:52;;;;;;;37.33;12.88;;;-5.50;99.90;;;;;;5074388;28;20032;-75
2024/01/11 07:42:19;;;;;;;44.30;14.52;;;-5.50;99.90;;;;;;5078944;28;20281;-74
2024/01/11 07:44:49;;;;;;;37.00;11.50;;;-5.40;99.90;;;;;;5082406;28;20028;-75
2024/01/11 07:47:15;;;;;;;46.47;12.90;;;-5.40;99.90;;;;;;5100180;22;20047;-93
2024/01/11 07:49:41;;;;;;;39.70;13.27;;;-5.40;99.90;;;;;;5065308;28;20031;-93
2024/01/11 07:52:09;;;;;;;41.47;14.88;;;-5.40;99.90;;;;;;5064708;28;20036;-92
2024/01/11 07:54:35;;;;;;;40.53;14.68;;;-5.40;99.90;;;;;;5062604;28;20039;-92
2024/01/11 07:57:02;;;;;;;37.45;13.43;;;-5.40;99.90;;;;;;5058916;28;20028;-92
2024/01/11 07:59:32;;;;;;;40.10;14.32;;;-5.30;99.90;;;;;;5074886;28;20663;-91
2024/01/11 08:01:58;;;;;;;40.72;14.55;;;-5.20;99.90;;;;;;5068787;28;20035;-92
2024/01/11 08:04:23;;;;;;;44.38;15.30;;;-5.30;99.90;;;;;;5067617;28;20028;-92
2024/01/11 08:06:52;;;;;;;39.33;14.90;;;-5.30;99.90;;;;;;5070120;28;20608;-92
2024/01/11 08:09:18;;;;;;;;;;;-5.10;99.90;;;;;;5069028;28;20024;-92
2024/01/11 08:11:44;;;;;;;36.90;12.15;;;-5.30;99.90;;;;;;5075260;28;19923;-91
2024/01/11 08:14:09;;;;;;;40.15;15.05;;;-5.20;99.90;;;;;;5064576;28;20024;-92
2024/01/11 08:16:37;;;;;;;42.45;14.38;;;-5.20;99.90;;;;;;5074130;28;20103;-92
2024/01/11 08:19:06;;;;;;;45.47;14.57;;;-5.20;99.90;;;;;;5067731;28;20028;-92
2024/01/11 08:21:32;;;;;;;44.50;14.15;;;-5.20;99.90;;;;;;5075045;28;20065;-91
2024/01/11 08:23:59;;;;;;;46.50;16.10;;;-5.10;99.90;;;;;;5071246;28;20056;-92
2024/01/11 08:26:25;;;;;;;;;;;-5.10;99.90;;;;;;5069470;28;20024;-92
2024/01/11 08:28:54;;;;;;;33.88;12.98;;;-5.00;99.90;;;;;;5074943;28;20018;-91
2024/01/11 08:31:19;;;;;;;43.92;15.85;;;-5.00;99.90;;;;;;5048013;28;20099;-91
2024/01/11 08:33:45;;;;;;;42.10;14.55;;;-5.00;99.90;;;;;;5065226;28;20059;-92
2024/01/11 08:36:11;;;;;;;45.78;15.38;;;-5.00;99.90;;;;;;5068100;28;20077;-92
2024/01/11 08:38:37;;;;;;;41.97;14.27;;;-5.00;99.90;;;;;;5070444;28;20114;-92
2024/01/11 08:41:03;;;;;;;41.70;14.73;;;-4.90;99.90;;;;;;5075108;28;20028;-91
2024/01/11 08:43:29;;;;;;;39.60;15.63;;;-4.90;99.90;;;;;;5075397;28;20028;-92
2024/01/11 08:45:55;;;;;;;42.03;14.48;;;-4.90;99.90;;;;;;5071296;28;20051;-93
2024/01/11 08:48:21;;;;;;;43.13;15.88;;;-4.80;99.90;;;;;;5070624;28;20051;-93
2024/01/11 08:50:47;;;;;;;57.85;18.20;;;-4.70;99.90;;;;;;5073679;28;20061;-92
2024/01/11 08:53:13;;;;;;;46.40;17.25;;;-4.70;99.90;;;;;;5092157;28;20024;-93
2024/01/11 08:55:39;;;;;;;43.03;15.27;;;-4.60;99.90;;;;;;5058176;28;20558;-93
2024/01/11 08:58:04;;;;;;;46.38;15.13;;;-4.60;99.90;;;;;;5069681;28;20464;-92
2024/01/11 09:00:30;;;;;;;50.55;16.67;;;-4.50;99.90;;;;;;5066498;28;20028;-92
2024/01/11 09:02:56;;;;;;;45.88;16.08;;;-4.40;99.90;;;;;;5068691;28;20083;-92
2024/01/11 09:05:21;;;;;;;43.38;15.57;;;-4.40;99.90;;;;;;5066104;28;20023;-92
2024/01/11 09:07:47;;;;;;;44.22;15.73;;;-4.20;99.90;;;;;;5073835;28;20500;-92
2024/01/11 09:10:13;;;;;;;43.92;16.38;;;-4.20;99.90;;;;;;5068355;28;20035;-91
2024/01/11 09:12:38;;;;;;;50.53;16.92;;;-4.20;99.90;;;;;;5071176;28;20082;-92
2024/01/11 09:15:04;;;;;;;46.35;15.32;;;-4.10;99.90;;;;;;5055853;28;20038;-91
2024/01/11 09:17:30;;;;;;;52.90;16.98;;;-4.00;99.90;;;;;;5065384;28;20033;-94
2024/01/11 09:19:56;;;;;;;49.28;16.45;;;-4.00;99.90;;;;;;5071771;28;20100;-91
2024/01/11 09:22:22;;;;;;;46.28;16.15;;;-3.90;99.90;;;;;;5075048;28;20028;-91
2024/01/11 09:24:47;;;;;;;52.88;16.60;;;-3.80;99.90;;;;;;5074540;28;20035;-92
2024/01/11 09:27:13;;;;;;;47.22;15.18;;;-3.70;99.90;;;;;;5072367;28;20074;-91
2024/01/11 09:29:45;;;;;;;48.15;16.88;;;-3.70;99.90;;;;;;5057824;28;20050;-91
2024/01/11 09:32:14;;;;;;;51.38;17.35;;;-3.60;99.90;;;;;;5074544;28;20020;-92
2024/01/11 09:34:40;;;;;;;54.78;17.67;;;-3.60;99.90;;;;;;5068440;28;20025;-92
2024/01/11 09:37:05;;;;;;;65.20;20.15;;;-3.60;99.90;;;;;;5074667;28;20554;-91
2024/01/11 09:39:31;;;;;;;44.80;15.85;;;-3.60;99.90;;;;;;5064217;28;20024;-91
2024/01/11 09:42:18;;;;;;;45.92;17.98;;;-3.50;99.90;;;;;;5068150;28;20028;-92
2024/01/11 09:44:44;;;;;;;45.15;16.67;;;-3.50;99.90;;;;;;5070793;28;20656;-92
2024/01/11 09:47:11;;;;;;;52.08;18.20;;;-3.40;99.90;;;;;;5068644;28;20029;-92
2024/01/11 09:49:38;;;;;;;42.85;16.00;;;-3.40;99.90;;;;;;5060580;28;20062;-92
2024/01/11 09:52:05;;;;;;;50.47;16.48;;;-3.40;99.90;;;;;;5071071;28;20107;-93
2024/01/11 09:54:31;;;;;;;52.22;19.20;;;-3.30;99.90;;;;;;5072859;28;20024;-92
2024/01/11 09:56:59;;;;;;;53.78;16.90;;;-3.20;99.90;;;;;;5055294;28;20040;-92
2024/01/11 09:59:25;;;;;;;50.00;17.90;;;-3.20;99.90;;;;;;5071429;28;20023;-92
2024/01/11 10:01:52;;;;;;;43.30;14.80;;;-3.10;99.90;;;;;;5069049;28;20033;-92
2024/01/11 10:04:18;;;;;;;50.58;17.05;;;-3.10;99.90;;;;;;5067478;28;20060;-92
2024/01/11 10:06:44;;;;;;;53.78;16.77;;;-3.00;99.90;;;;;;5069475;28;20074;-93
2024/01/11 10:09:09;;;;;;;48.47;15.00;;;-2.90;99.90;;;;;;5073793;28;20535;-92
2024/01/11 10:11:38;;;;;;;49.53;16.20;;;-2.90;99.90;;;;;;5068536;28;20114;-92
2024/01/11 10:14:05;;;;;;;47.25;16.17;;;-2.80;99.90;;;;;;5074360;28;20042;-92
2024/01/11 10:16:31;;;;;;;54.33;17.17;;;-2.80;99.90;;;;;;5075068;28;20522;-92
2024/01/11 10:18:57;;;;;;;42.22;15.43;;;-2.70;99.90;;;;;;5077354;28;20040;-92
2024/01/11 10:21:23;;;;;;;40.95;15.55;;;-2.70;99.90;;;;;;5069937;28;20032;-92
2024/01/11 10:23:50;;;;;;;49.08;17.30;;;-2.50;99.90;;;;;;5077578;28;20024;-93
2024/01/11 10:26:17;;;;;;;53.15;16.73;;;-2.50;99.90;;;;;;5077822;28;20055;-92
2024/01/11 10:28:45;;;;;;;47.35;16.52;;;-2.50;99.90;;;;;;5072426;28;20025;-90
2024/01/11 10:31:11;;;;;;;53.53;17.23;;;-2.40;99.90;;;;;;5070036;28;20027;-91
2024/01/11 10:33:37;;;;;;;48.78;16.77;;;-2.40;99.90;;;;;;5069172;28;20024;-93
2024/01/11 10:36:03;;;;;;;57.08;18.10;;;-2.40;99.90;;;;;;5068066;28;20059;-93
2024/01/11 10:38:30;;;;;;;50.20;16.88;;;-2.30;99.90;;;;;;5075744;28;20016;-93
2024/01/11 10:41:00;;;;;;;49.80;17.05;;;-2.30;99.90;;;;;;5074139;28;20052;-91
2024/01/11 10:43:27;;;;;;;53.42;17.15;;;-2.20;99.90;;;;;;5073547;28;20032;-92
2024/01/11 10:45:57;;;;;;;45.72;16.35;;;-2.20;99.90;;;;;;5069535;28;20028;-93
2024/01/11 10:48:25;;;;;;;51.72;17.02;;;-2.10;99.90;;;;;;5077032;28;20115;-92
2024/01/11 10:51:00;;;;;;;58.10;17.27;;;-2.00;99.90;;;;;;5079252;28;20031;-93
2024/01/11 10:53:45;;;;;;;46.97;15.35;;;-2.00;99.90;;;;;;5072087;28;20117;-96
2024/01/11 10:56:12;;;;;;;55.30;17.00;;;-1.90;99.90;;;;;;5066254;28;20096;-92
2024/01/11 10:58:40;;;;;;;48.90;15.93;;;-1.90;99.90;;;;;;5067297;28;20024;-93
2024/01/11 11:01:06;;;;;;;47.35;15.73;;;-1.90;99.90;;;;;;5077383;28;20077;-92
2024/01/11 11:03:35;;;;;;;50.15;14.82;;;-1.80;99.90;;;;;;5081771;28;20115;-92
2024/01/11 11:06:02;;;;;;;44.88;15.45;;;-1.80;99.90;;;;;;5076995;28;20111;-93
2024/01/11 11:08:28;;;;;;;47.35;15.75;;;-1.70;99.90;;;;;;5077406;28;20024;-93
2024/01/11 11:10:57;;;;;;;48.10;14.85;;;-1.70;99.90;;;;;;5077210;28;20031;-91
2024/01/11 11:13:24;;;;;;;51.50;16.10;;;-1.60;99.90;;;;;;5073884;28;20028;-92
2024/01/11 11:15:50;;;;;;;45.70;16.85;;;-1.60;99.90;;;;;;5083295;28;20035;-93
2024/01/11 11:18:18;;;;;;;56.78;17.50;;;-1.60;99.90;;;;;;5071131;28;20028;-93
2024/01/11 11:20:44;;;;;;;52.70;17.17;;;-1.50;99.90;;;;;;5075618;28;20609;-93
2024/01/11 11:23:14;;;;;;;48.13;16.50;;;-1.30;99.90;;;;;;5067634;28;20036;-92
2024/01/11 11:25:45;;;;;;;58.08;16.58;;;-1.40;99.90;;;;;;5061301;28;20073;-94
2024/01/11 11:28:18;;;;;;;47.92;16.30;;;-1.40;99.90;;;;;;5075929;28;20031;-93
2024/01/11 11:30:47;;;;;;;47.38;16.92;;;-1.30;99.90;;;;;;5080086;28;20042;-93
2024/01/11 11:33:26;;;;;;;50.55;17.27;;;-1.40;99.90;;;;;;5076775;28;20028;-93
2024/01/11 11:35:58;;;;;;;48.58;16.83;;;-1.30;99.90;;;;;;5064140;28;20024;-93
2024/01/11 11:38:29;;;;;;;41.88;15.98;;;-1.30;99.90;;;;;;5070550;28;20028;-90
2024/01/11 11:40:57;;;;;;;41.10;14.05;;;-1.30;99.90;;;;;;5072655;28;20119;-92
2024/01/11 11:43:25;;;;;;;42.35;14.48;;;-1.20;99.90;;;;;;5066733;28;20024;-94
2024/01/11 11:45:53;;;;;;;38.42;13.43;;;-1.40;99.90;;;;;;5063985;28;20028;-93
2024/01/11 11:48:41;;;;;;;36.47;13.85;;;-1.20;99.90;;;;;;5060036;28;20051;-93
2024/01/11 11:51:07;;;;;;;35.80;13.00;;;-1.20;99.90;;;;;;5076047;28;20506;-94
2024/01/11 11:53:34;;;;;;;42.00;14.75;;;-1.20;99.90;;;;;;5074866;28;20032;-93
2024/01/11 11:56:01;;;;;;;33.28;12.75;;;-1.00;99.90;;;;;;5073429;28;20039;-90
2024/01/11 11:58:28;;;;;;;47.67;14.30;;;-1.00;99.90;;;;;;5068873;28;20036;-93
2024/01/11 12:00:57;;;;;;;50.60;14.60;;;-1.10;99.90;;;;;;5074052;28;20024;-92
2024/01/11 12:03:28;;;;;;;37.40;13.57;;;-1.00;99.90;;;;;;5069004;28;20605;-92
2024/01/11 12:05:55;;;;;;;38.75;13.43;;;-1.00;99.90;;;;;;5074469;28;20047;-92
2024/01/11 12:08:21;;;;;;;53.35;15.02;;;-1.00;99.90;;;;;;5070119;28;20028;-92
2024/01/11 12:10:47;;;;;;;42.17;14.38;;;-1.00;99.90;;;;;;5073583;28;20059;-93
2024/01/11 12:13:13;;;;;;;44.42;13.52;;;-0.90;99.90;;;;;;5072730;28;20059;-93
2024/01/11 12:15:40;;;;;;;38.03;12.77;;;-0.90;99.90;;;;;;5072836;28;20054;-92
2024/01/11 12:18:06;;;;;;;41.60;13.32;;;-0.90;99.90;;;;;;5073833;28;20032;-92
2024/01/11 12:20:33;;;;;;;33.63;11.75;;;-0.90;99.90;;;;;;5075622;28;20032;-93
2024/01/11 12:23:02;;;;;;;38.42;14.02;;;-0.80;99.90;;;;;;5071432;28;20082;-92
2024/01/11 12:25:28;;;;;;;35.03;12.95;;;-0.70;99.90;;;;;;5062348;28;20070;-93